sensor_id;sensor_type;location;lat;lon;timestamp;pressure;altitude;pressure_sealevel;temperature;humidity
76046;BME280;64741;41.730;44.788;2024-01-25T00:03:19;999.4;;;21.2;40.4
76046;BME280;64741;41.730;44.788;2024-01-25T00:08:19;999.4;;;21.2;40.4
76046;BME280;64741;41.730;44.788;2024-01-25T00:13:21;999.3;;;21.2;40.3
76046;BME280;64741;41.730;44.788;2024-01-25T00:18:11;999.3;;;21.2;40.3
76046;BME280;64741;41.730;44.788;2024-01-25T00:23:17;999.3;;;21.2;40.3
76046;BME280;64741;41.730;44.788;2024-01-25T00:28:17;999.2;;;21.2;40.3
76046;BME280;64741;41.730;44.788;2024-01-25T00:33:19;999.1;;;21.2;40.2
76046;BME280;64741;41.730;44.788;2024-01-25T00:38:17;999;;;21.2;40.3
76046;BME280;64741;41.730;44.788;2024-01-25T00:43:17;999;;;21.2;40.3
76046;BME280;64741;41.730;44.788;2024-01-25T00:48:19;999;;;21.2;40.3
76046;BME280;64741;41.730;44.788;2024-01-25T00:53:17;998.9;;;21.2;40.2
76046;BME280;64741;41.730;44.788;2024-01-25T00:58:11;998.7;;;21.2;40.3
76046;BME280;64741;41.730;44.788;2024-01-25T01:03:19;998.6;;;21.2;40.2
76046;BME280;64741;41.730;44.788;2024-01-25T01:08:11;998.6;;;21.2;40.2
76046;BME280;64741;41.730;44.788;2024-01-25T01:13:05;998.6;;;21.2;40.3
76046;BME280;64741;41.730;44.788;2024-01-25T01:18:19;998.5;;;21.2;40.2
76046;BME280;64741;41.730;44.788;2024-01-25T01:23:11;998.3;;;21.1;40.2
76046;BME280;64741;41.730;44.788;2024-01-25T01:28:11;998.2;;;21.1;40.3
76046;BME280;64741;41.730;44.788;2024-01-25T01:33:17;998.2;;;21.1;40.3
76046;BME280;64741;41.730;44.788;2024-01-25T01:38:19;998.1;;;21.1;40.3
76046;BME280;64741;41.730;44.788;2024-01-25T01:43:19;998;;;21.1;40.4
76046;BME280;64741;41.730;44.788;2024-01-25T01:48:21;998;;;21.1;40.3
76046;BME280;64741;41.730;44.788;2024-01-25T01:53:11;997.9;;;21.1;40.2
76046;BME280;64741;41.730;44.788;2024-01-25T01:58:21;997.7;;;21.1;40.2
76046;BME280;64741;41.730;44.788;2024-01-25T02:03:11;997.7;;;21.1;40.1
76046;BME280;64741;41.730;44.788;2024-01-25T02:08:21;997.7;;;21.1;40.1
76046;BME280;64741;41.730;44.788;2024-01-25T02:13:05;997.7;;;21.1;40
76046;BME280;64741;41.730;44.788;2024-01-25T02:18:07;997.7;;;21.1;40.1
76046;BME280;64741;41.730;44.788;2024-01-25T02:23:19;997.6;;;21.1;40
76046;BME280;64741;41.730;44.788;2024-01-25T02:28:21;997.6;;;21.1;40
76046;BME280;64741;41.730;44.788;2024-01-25T02:33:19;997.6;;;21.1;39.9
76046;BME280;64741;41.730;44.788;2024-01-25T02:38:19;997.6;;;21.1;40
76046;BME280;64741;41.730;44.788;2024-01-25T02:43:21;997.5;;;21.1;40.1
76046;BME280;64741;41.730;44.788;2024-01-25T02:48:11;997.5;;;21;40.1
76046;BME280;64741;41.730;44.788;2024-01-25T02:53:21;997.5;;;21;40.1
76046;BME280;64741;41.730;44.788;2024-01-25T02:58:09;997.5;;;21;40.2
76046;BME280;64741;41.730;44.788;2024-01-25T03:02:43;997.4;;;21;40.1
76046;BME280;64741;41.730;44.788;2024-01-25T03:08:15;997.4;;;21;40
76046;BME280;64741;41.730;44.788;2024-01-25T03:13:17;997.3;;;21;40
76046;BME280;64741;41.730;44.788;2024-01-25T03:18:19;997.3;;;21;40
76046;BME280;64741;41.730;44.788;2024-01-25T03:23:11;997.3;;;21;40
76046;BME280;64741;41.730;44.788;2024-01-25T03:28:17;997.3;;;21;40.1
76046;BME280;64741;41.730;44.788;2024-01-25T03:33:21;997.3;;;21;40.1
76046;BME280;64741;41.730;44.788;2024-01-25T03:38:11;997.3;;;21;40
76046;BME280;64741;41.730;44.788;2024-01-25T03:43:11;997.3;;;21;39.9
76046;BME280;64741;41.730;44.788;2024-01-25T03:48:21;997.3;;;21;39.8
76046;BME280;64741;41.730;44.788;2024-01-25T03:53:17;997.3;;;21;39.9
76046;BME280;64741;41.730;44.788;2024-01-25T03:58:09;997.3;;;21;39.9
76046;BME280;64741;41.730;44.788;2024-01-25T04:03:17;997.3;;;21;40
76046;BME280;64741;41.730;44.788;2024-01-25T04:08:19;997.3;;;20.9;40
76046;BME280;64741;41.730;44.788;2024-01-25T04:13:19;997.4;;;20.9;40
76046;BME280;64741;41.730;44.788;2024-01-25T04:17:33;997.3;;;20.9;39.9
76046;BME280;64741;41.730;44.788;2024-01-25T04:23:17;997.2;;;20.9;40
76046;BME280;64741;41.730;44.788;2024-01-25T04:27:59;997.1;;;20.9;40
76046;BME280;64741;41.730;44.788;2024-01-25T04:32:53;997.1;;;20.9;39.9
76046;BME280;64741;41.730;44.788;2024-01-25T04:38:19;997.1;;;20.9;39.8
76046;BME280;64741;41.730;44.788;2024-01-25T04:43:17;997.2;;;20.9;39.8
76046;BME280;64741;41.730;44.788;2024-01-25T04:48:05;997.1;;;20.9;39.8
76046;BME280;64741;41.730;44.788;2024-01-25T04:53:19;997.2;;;20.9;39.9
76046;BME280;64741;41.730;44.788;2024-01-25T04:58:11;997.2;;;20.9;39.8
76046;BME280;64741;41.730;44.788;2024-01-25T05:03:17;997.1;;;20.9;39.7
76046;BME280;64741;41.730;44.788;2024-01-25T05:08:21;997.1;;;20.9;39.7
76046;BME280;64741;41.730;44.788;2024-01-25T05:13:11;997.1;;;20.9;39.7
76046;BME280;64741;41.730;44.788;2024-01-25T05:18:11;997.2;;;20.9;39.5
76046;BME280;64741;41.730;44.788;2024-01-25T05:23:19;997.2;;;20.9;39.7
76046;BME280;64741;41.730;44.788;2024-01-25T05:28:17;997.1;;;20.9;39.8
76046;BME280;64741;41.730;44.788;2024-01-25T05:33:19;997;;;20.9;39.7
76046;BME280;64741;41.730;44.788;2024-01-25T05:38:17;997;;;20.9;39.7
76046;BME280;64741;41.730;44.788;2024-01-25T05:43:19;996.8;;;20.9;39.8
76046;BME280;64741;41.730;44.788;2024-01-25T05:48:19;996.9;;;20.9;39.8
76046;BME280;64741;41.730;44.788;2024-01-25T05:53:19;996.9;;;20.8;39.7
76046;BME280;64741;41.730;44.788;2024-01-25T05:58:19;996.9;;;20.8;39.7
76046;BME280;64741;41.730;44.788;2024-01-25T06:03:19;996.9;;;20.8;39.7
76046;BME280;64741;41.730;44.788;2024-01-25T06:08:11;996.9;;;20.8;39.7
76046;BME280;64741;41.730;44.788;2024-01-25T06:13:19;996.9;;;20.8;39.8
76046;BME280;64741;41.730;44.788;2024-01-25T06:18:19;996.8;;;20.8;39.8
76046;BME280;64741;41.730;44.788;2024-01-25T06:23:17;996.8;;;20.8;40
76046;BME280;64741;41.730;44.788;2024-01-25T06:28:19;996.7;;;20.8;40.1
76046;BME280;64741;41.730;44.788;2024-01-25T06:33:17;996.6;;;20.8;40.1
76046;BME280;64741;41.730;44.788;2024-01-25T06:38:19;996.5;;;20.9;40.3
76046;BME280;64741;41.730;44.788;2024-01-25T06:43:21;996.5;;;20.9;40.2
76046;BME280;64741;41.730;44.788;2024-01-25T06:47:59;996.4;;;20.8;40.2
76046;BME280;64741;41.730;44.788;2024-01-25T06:53:11;996.4;;;20.8;40.2
76046;BME280;64741;41.730;44.788;2024-01-25T06:58:17;996.4;;;20.9;40.1
76046;BME280;64741;41.730;44.788;2024-01-25T07:03:17;996.4;;;20.9;40
76046;BME280;64741;41.730;44.788;2024-01-25T07:08:17;996.4;;;20.9;40
76046;BME280;64741;41.730;44.788;2024-01-25T07:13:17;996.5;;;20.9;40
76046;BME280;64741;41.730;44.788;2024-01-25T07:18:17;996.5;;;20.9;39.9
76046;BME280;64741;41.730;44.788;2024-01-25T07:23:20;996.5;;;20.9;40.3
76046;BME280;64741;41.730;44.788;2024-01-25T07:28:18;996.5;;;20.9;41
76046;BME280;64741;41.730;44.788;2024-01-25T07:33:09;996.5;;;21;42.7
76046;BME280;64741;41.730;44.788;2024-01-25T07:38:01;996.4;;;21.1;42.8
76046;BME280;64741;41.730;44.788;2024-01-25T07:43:09;996.4;;;21.1;42.8
76046;BME280;64741;41.730;44.788;2024-01-25T07:48:11;996.4;;;21.2;42.8
76046;BME280;64741;41.730;44.788;2024-01-25T07:53:19;996.4;;;21.2;43.1
76046;BME280;64741;41.730;44.788;2024-01-25T07:58:11;996.3;;;21.3;44
76046;BME280;64741;41.730;44.788;2024-01-25T08:03:11;996.3;;;21.4;45.3
76046;BME280;64741;41.730;44.788;2024-01-25T08:08:17;996.3;;;21.4;44.9
76046;BME280;64741;41.730;44.788;2024-01-25T08:13:05;996.2;;;21.4;44
76046;BME280;64741;41.730;44.788;2024-01-25T08:18:19;996.1;;;21.5;43.6
76046;BME280;64741;41.730;44.788;2024-01-25T08:23:19;996;;;21.5;42.9
76046;BME280;64741;41.730;44.788;2024-01-25T08:28:11;995.9;;;21.5;42.4
76046;BME280;64741;41.730;44.788;2024-01-25T08:33:21;995.8;;;21.5;42.3
76046;BME280;64741;41.730;44.788;2024-01-25T08:38:09;995.7;;;21.5;42.2
76046;BME280;64741;41.730;44.788;2024-01-25T08:43:21;995.6;;;21.6;42.2
76046;BME280;64741;41.730;44.788;2024-01-25T08:48:19;995.4;;;21.6;42
76046;BME280;64741;41.730;44.788;2024-01-25T08:53:17;995.4;;;21.6;41.8
76046;BME280;64741;41.730;44.788;2024-01-25T08:58:19;995.3;;;21.6;41.6
76046;BME280;64741;41.730;44.788;2024-01-25T09:03:15;995.3;;;21.7;41.6
76046;BME280;64741;41.730;44.788;2024-01-25T09:08:09;995.2;;;21.6;41.1
76046;BME280;64741;41.730;44.788;2024-01-25T09:13:19;995.1;;;21.6;40.8
76046;BME280;64741;41.730;44.788;2024-01-25T09:18:09;995.1;;;21.6;39.8
76046;BME280;64741;41.730;44.788;2024-01-25T09:23:11;995;;;21.6;39.5
76046;BME280;64741;41.730;44.788;2024-01-25T09:28:21;994.9;;;21.6;39.6
76046;BME280;64741;41.730;44.788;2024-01-25T09:33:09;994.8;;;21.6;39.8
76046;BME280;64741;41.730;44.788;2024-01-25T09:38:11;994.7;;;21.6;39.8
76046;BME280;64741;41.730;44.788;2024-01-25T09:43:15;994.7;;;21.6;39.6
76046;BME280;64741;41.730;44.788;2024-01-25T09:48:19;994.6;;;21.6;39.6
76046;BME280;64741;41.730;44.788;2024-01-25T09:52:57;994.5;;;21.6;39.6
76046;BME280;64741;41.730;44.788;2024-01-25T09:58:17;994.5;;;21.6;39.6
76046;BME280;64741;41.730;44.788;2024-01-25T10:03:09;994.3;;;21.6;39.5
76046;BME280;64741;41.730;44.788;2024-01-25T10:08:17;994.3;;;21.5;38.9
76046;BME280;64741;41.730;44.788;2024-01-25T10:13:11;994.1;;;21.5;38.5
76046;BME280;64741;41.730;44.788;2024-01-25T10:18:21;994.1;;;21.5;38.6
76046;BME280;64741;41.730;44.788;2024-01-25T10:23:19;994;;;21.5;38.8
76046;BME280;64741;41.730;44.788;2024-01-25T10:28:15;994;;;21.5;38.7
76046;BME280;64741;41.730;44.788;2024-01-25T10:32:51;993.8;;;21.5;38.5
76046;BME280;64741;41.730;44.788;2024-01-25T10:38:21;993.8;;;21.5;38.4
76046;BME280;64741;41.730;44.788;2024-01-25T10:43:19;993.8;;;21.5;38.4
76046;BME280;64741;41.730;44.788;2024-01-25T10:48:19;993.8;;;21.5;38.7
76046;BME280;64741;41.730;44.788;2024-01-25T10:53:19;993.7;;;21.5;39
76046;BME280;64741;41.730;44.788;2024-01-25T10:58:12;993.7;;;21.5;40
76046;BME280;64741;41.730;44.788;2024-01-25T11:03:25;993.8;;;21.5;41.1
76046;BME280;64741;41.730;44.788;2024-01-25T11:08:17;993.7;;;21.6;42
76046;BME280;64741;41.730;44.788;2024-01-25T11:13:23;993.6;;;21.6;42.6
76046;BME280;64741;41.730;44.788;2024-01-25T11:18:17;993.5;;;21.6;43.3
76046;BME280;64741;41.730;44.788;2024-01-25T11:23:17;993.5;;;21.7;44
76046;BME280;64741;41.730;44.788;2024-01-25T11:28:19;993.4;;;21.7;44.3
76046;BME280;64741;41.730;44.788;2024-01-25T11:33:11;993.3;;;21.7;44.2
76046;BME280;64741;41.730;44.788;2024-01-25T11:38:17;993.3;;;21.7;43.6
76046;BME280;64741;41.730;44.788;2024-01-25T11:43:19;993.2;;;21.7;43.5
76046;BME280;64741;41.730;44.788;2024-01-25T11:48:09;993.2;;;21.6;43.2
76046;BME280;64741;41.730;44.788;2024-01-25T11:53:11;993.3;;;21.6;43.4
76046;BME280;64741;41.730;44.788;2024-01-25T11:58:21;993.4;;;21.6;43.1
76046;BME280;64741;41.730;44.788;2024-01-25T12:03:17;993.3;;;21.5;42.9
76046;BME280;64741;41.730;44.788;2024-01-25T12:08:20;993.2;;;21.5;42.8
76046;BME280;64741;41.730;44.788;2024-01-25T12:13:17;993.2;;;21.5;42.7
76046;BME280;64741;41.730;44.788;2024-01-25T12:18:19;993.1;;;21.5;42.7
76046;BME280;64741;41.730;44.788;2024-01-25T12:23:05;993;;;21.4;42.5
76046;BME280;64741;41.730;44.788;2024-01-25T12:28:19;993;;;21.4;42.4
76046;BME280;64741;41.730;44.788;2024-01-25T12:33:19;992.9;;;21.4;42.3
76046;BME280;64741;41.730;44.788;2024-01-25T12:38:19;993;;;21.4;42.2
76046;BME280;64741;41.730;44.788;2024-01-25T12:43:11;993;;;21.4;42.2
76046;BME280;64741;41.730;44.788;2024-01-25T12:48:19;993;;;21.3;42.2
76046;BME280;64741;41.730;44.788;2024-01-25T12:53:17;992.9;;;21.3;42.1
76046;BME280;64741;41.730;44.788;2024-01-25T12:58:17;992.9;;;21.3;41.9
76046;BME280;64741;41.730;44.788;2024-01-25T13:03:19;992.8;;;21.3;41.7
76046;BME280;64741;41.730;44.788;2024-01-25T13:08:17;992.8;;;21.3;41.3
76046;BME280;64741;41.730;44.788;2024-01-25T13:13:19;992.7;;;21.2;41.3
76046;BME280;64741;41.730;44.788;2024-01-25T13:18:21;992.8;;;21.2;41.2
76046;BME280;64741;41.730;44.788;2024-01-25T13:23:19;992.8;;;21.2;41.2
76046;BME280;64741;41.730;44.788;2024-01-25T13:28:11;992.9;;;21.1;41.1
76046;BME280;64741;41.730;44.788;2024-01-25T13:33:21;992.9;;;21.1;41.1
76046;BME280;64741;41.730;44.788;2024-01-25T13:38:17;992.9;;;21.1;41
76046;BME280;64741;41.730;44.788;2024-01-25T13:43:19;992.9;;;21.1;40.9
76046;BME280;64741;41.730;44.788;2024-01-25T13:48:17;992.9;;;21.1;40.9
76046;BME280;64741;41.730;44.788;2024-01-25T13:53:19;992.9;;;21.1;40.8
76046;BME280;64741;41.730;44.788;2024-01-25T13:58:19;992.9;;;21;40.7
76046;BME280;64741;41.730;44.788;2024-01-25T14:03:19;993;;;21;40.6
76046;BME280;64741;41.730;44.788;2024-01-25T14:08:19;993;;;21;40.5
76046;BME280;64741;41.730;44.788;2024-01-25T14:13:17;992.9;;;21;40.5
76046;BME280;64741;41.730;44.788;2024-01-25T14:18:11;992.9;;;21;40.4
76046;BME280;64741;41.730;44.788;2024-01-25T14:23:21;992.9;;;20.9;40.4
76046;BME280;64741;41.730;44.788;2024-01-25T14:28:19;992.9;;;20.9;40.5
76046;BME280;64741;41.730;44.788;2024-01-25T14:33:17;992.9;;;20.9;40.5
76046;BME280;64741;41.730;44.788;2024-01-25T14:38:19;993;;;20.9;40.5
76046;BME280;64741;41.730;44.788;2024-01-25T14:43:17;993.1;;;20.9;40.4
76046;BME280;64741;41.730;44.788;2024-01-25T14:48:19;993.2;;;20.9;40.2
76046;BME280;64741;41.730;44.788;2024-01-25T14:53:21;993.2;;;20.9;40.3
76046;BME280;64741;41.730;44.788;2024-01-25T14:58:21;993.2;;;20.8;40.2
76046;BME280;64741;41.730;44.788;2024-01-25T15:03:11;993.2;;;20.8;40.3
76046;BME280;64741;41.730;44.788;2024-01-25T15:23:54;993.3;;;20.7;40.2
76046;BME280;64741;41.730;44.788;2024-01-25T15:29:38;993.4;;;20.7;40.2
76046;BME280;64741;41.730;44.788;2024-01-25T15:34:28;993.4;;;20.7;40.2
76046;BME280;64741;41.730;44.788;2024-01-25T15:39:26;993.4;;;20.7;40.2
76046;BME280;64741;41.730;44.788;2024-01-25T15:44:38;993.5;;;20.7;40.1
76046;BME280;64741;41.730;44.788;2024-01-25T15:49:28;993.5;;;20.7;39.9
76046;BME280;64741;41.730;44.788;2024-01-25T15:54:14;993.5;;;20.7;39.9
76046;BME280;64741;41.730;44.788;2024-01-25T15:59:34;993.6;;;20.7;39.9
76046;BME280;64741;41.730;44.788;2024-01-25T16:04:36;993.6;;;20.7;39.9
76046;BME280;64741;41.730;44.788;2024-01-25T16:09:36;993.5;;;20.7;39.8
76046;BME280;64741;41.730;44.788;2024-01-25T16:14:38;993.5;;;20.7;39.8
76046;BME280;64741;41.730;44.788;2024-01-25T16:19:28;993.6;;;20.7;39.8
76046;BME280;64741;41.730;44.788;2024-01-25T16:24:36;993.6;;;20.6;39.8
76046;BME280;64741;41.730;44.788;2024-01-25T16:29:28;993.6;;;20.7;39.9
76046;BME280;64741;41.730;44.788;2024-01-25T16:34:36;993.6;;;20.7;41.2
76046;BME280;64741;41.730;44.788;2024-01-25T16:39:36;993.6;;;20.8;41.4
76046;BME280;64741;41.730;44.788;2024-01-25T16:44:34;993.7;;;20.9;41.3
76046;BME280;64741;41.730;44.788;2024-01-25T16:49:38;993.7;;;21;41.3
76046;BME280;64741;41.730;44.788;2024-01-25T16:54:38;993.7;;;21;41.3
76046;BME280;64741;41.730;44.788;2024-01-25T16:59:36;993.7;;;21;41.2
76046;BME280;64741;41.730;44.788;2024-01-25T17:04:38;993.7;;;21.1;41.1
76046;BME280;64741;41.730;44.788;2024-01-25T17:09:30;993.8;;;21.1;41
76046;BME280;64741;41.730;44.788;2024-01-25T17:14:28;993.8;;;21.2;40.9
76046;BME280;64741;41.730;44.788;2024-01-25T17:19:38;993.8;;;21.2;40.8
76046;BME280;64741;41.730;44.788;2024-01-25T17:24:28;993.8;;;21.2;40.7
76046;BME280;64741;41.730;44.788;2024-01-25T17:28:58;993.8;;;21.2;40.6
76046;BME280;64741;41.730;44.788;2024-01-25T17:34:34;993.8;;;21.2;40.5
76046;BME280;64741;41.730;44.788;2024-01-25T17:39:34;993.9;;;21.2;40.5
76046;BME280;64741;41.730;44.788;2024-01-25T17:44:36;993.9;;;21.3;40.4
76046;BME280;64741;41.730;44.788;2024-01-25T17:49:14;994;;;21.3;40.3
76046;BME280;64741;41.730;44.788;2024-01-25T17:54:30;994;;;21.2;40.3
76046;BME280;64741;41.730;44.788;2024-01-25T17:59:38;994;;;21.3;40.2
76046;BME280;64741;41.730;44.788;2024-01-25T18:04:26;993.9;;;21.3;40.2
76046;BME280;64741;41.730;44.788;2024-01-25T18:09:28;993.9;;;21.3;40.1
76046;BME280;64741;41.730;44.788;2024-01-25T18:14:34;993.9;;;21.3;40
76046;BME280;64741;41.730;44.788;2024-01-25T18:19:36;993.9;;;21.3;40.2
76046;BME280;64741;41.730;44.788;2024-01-25T18:24:38;994;;;21.3;40.4
76046;BME280;64741;41.730;44.788;2024-01-25T18:29:36;994.1;;;21.3;40.5
76046;BME280;64741;41.730;44.788;2024-01-25T18:34:38;994.1;;;21.3;40.6
76046;BME280;64741;41.730;44.788;2024-01-25T18:39:38;994.1;;;21.4;40.7
76046;BME280;64741;41.730;44.788;2024-01-25T18:44:39;994;;;21.4;40.7
76046;BME280;64741;41.730;44.788;2024-01-25T18:49:38;994;;;21.4;40.7
76046;BME280;64741;41.730;44.788;2024-01-25T18:54:38;994;;;21.4;40.7
76046;BME280;64741;41.730;44.788;2024-01-25T18:59:30;994;;;21.4;40.5
76046;BME280;64741;41.730;44.788;2024-01-25T19:04:40;993.9;;;21.4;40.4
76046;BME280;64741;41.730;44.788;2024-01-25T19:09:38;993.8;;;21.4;40.3
76046;BME280;64741;41.730;44.788;2024-01-25T19:14:36;993.8;;;21.4;40.3
76046;BME280;64741;41.730;44.788;2024-01-25T19:19:38;993.7;;;21.4;40.2
76046;BME280;64741;41.730;44.788;2024-01-25T19:24:36;993.7;;;21.4;40.2
76046;BME280;64741;41.730;44.788;2024-01-25T19:28:52;993.7;;;21.3;40.1
76046;BME280;64741;41.730;44.788;2024-01-25T19:34:40;993.6;;;21.3;40.1
76046;BME280;64741;41.730;44.788;2024-01-25T19:39:40;993.6;;;21.3;40.1
76046;BME280;64741;41.730;44.788;2024-01-25T19:44:28;993.6;;;21.3;40
76046;BME280;64741;41.730;44.788;2024-01-25T19:49:36;993.6;;;21.3;40
76046;BME280;64741;41.730;44.788;2024-01-25T19:54:36;993.6;;;21.3;40
76046;BME280;64741;41.730;44.788;2024-01-25T19:59:36;993.6;;;21.3;39.9
76046;BME280;64741;41.730;44.788;2024-01-25T20:04:36;993.5;;;21.2;39.9
76046;BME280;64741;41.730;44.788;2024-01-25T20:09:26;993.5;;;21.2;39.8
76046;BME280;64741;41.730;44.788;2024-01-25T20:14:36;993.5;;;21.2;39.8
76046;BME280;64741;41.730;44.788;2024-01-25T20:19:36;993.5;;;21.2;39.8
76046;BME280;64741;41.730;44.788;2024-01-25T20:24:28;993.5;;;21.2;39.7
76046;BME280;64741;41.730;44.788;2024-01-25T20:29:38;993.4;;;21.2;39.7
76046;BME280;64741;41.730;44.788;2024-01-25T20:34:28;993.4;;;21.2;39.7
76046;BME280;64741;41.730;44.788;2024-01-25T20:39:28;993.4;;;21.2;39.6
76046;BME280;64741;41.730;44.788;2024-01-25T20:44:38;993.3;;;21.2;39.5
76046;BME280;64741;41.730;44.788;2024-01-25T20:49:28;993.3;;;21.2;39.5
76046;BME280;64741;41.730;44.788;2024-01-25T20:54:28;993.2;;;21.1;39.5
76046;BME280;64741;41.730;44.788;2024-01-25T20:59:36;993.2;;;21.1;39.4
76046;BME280;64741;41.730;44.788;2024-01-25T21:04:36;993.2;;;21.1;39.5
76046;BME280;64741;41.730;44.788;2024-01-25T21:09:34;993.2;;;21.1;39.5
76046;BME280;64741;41.730;44.788;2024-01-25T21:14:38;993.1;;;21.1;39.5
76046;BME280;64741;41.730;44.788;2024-01-25T21:19:20;993;;;21.1;39.4
76046;BME280;64741;41.730;44.788;2024-01-25T21:24:38;993;;;21.1;39.4
76046;BME280;64741;41.730;44.788;2024-01-25T21:29:28;993;;;21.1;39.3
76046;BME280;64741;41.730;44.788;2024-01-25T21:34:38;992.9;;;21.1;39.2
76046;BME280;64741;41.730;44.788;2024-01-25T21:39:36;992.8;;;21.1;39.2
76046;BME280;64741;41.730;44.788;2024-01-25T21:44:36;992.8;;;21.1;39.2
76046;BME280;64741;41.730;44.788;2024-01-25T21:49:38;992.8;;;21;39.1
76046;BME280;64741;41.730;44.788;2024-01-25T21:54:38;992.7;;;21;39.1
76046;BME280;64741;41.730;44.788;2024-01-25T21:59:26;992.6;;;21.1;39.2
76046;BME280;64741;41.730;44.788;2024-01-25T22:04:38;992.6;;;21.1;39.2
76046;BME280;64741;41.730;44.788;2024-01-25T22:09:32;992.5;;;21;39.1
76046;BME280;64741;41.730;44.788;2024-01-25T22:14:12;992.4;;;21;39.1
76046;BME280;64741;41.730;44.788;2024-01-25T22:19:38;992.5;;;21;39
76046;BME280;64741;41.730;44.788;2024-01-25T22:24:28;992.4;;;21;39.1
76046;BME280;64741;41.730;44.788;2024-01-25T22:29:28;992.4;;;21;39
76046;BME280;64741;41.730;44.788;2024-01-25T22:34:37;992.4;;;21.1;39.2
76046;BME280;64741;41.730;44.788;2024-01-25T22:39:36;992.4;;;21;39.1
76046;BME280;64741;41.730;44.788;2024-01-25T22:44:36;992.3;;;21;39.1
76046;BME280;64741;41.730;44.788;2024-01-25T22:49:38;992.3;;;21;39.2
76046;BME280;64741;41.730;44.788;2024-01-25T22:54:26;992.2;;;21;39.4
76046;BME280;64741;41.730;44.788;2024-01-25T22:59:34;992.3;;;20.9;39.3
76046;BME280;64741;41.730;44.788;2024-01-25T23:04:28;992.3;;;20.9;39.2
76046;BME280;64741;41.730;44.788;2024-01-25T23:09:38;992.3;;;20.9;39.2
76046;BME280;64741;41.730;44.788;2024-01-25T23:14:36;992.2;;;20.9;39.2
76046;BME280;64741;41.730;44.788;2024-01-25T23:19:36;992.1;;;20.9;39.5
76046;BME280;64741;41.730;44.788;2024-01-25T23:24:38;992;;;20.9;39.6
76046;BME280;64741;41.730;44.788;2024-01-25T23:29:26;992.1;;;20.9;39.7
76046;BME280;64741;41.730;44.788;2024-01-25T23:34:36;992;;;20.9;39.4
76046;BME280;64741;41.730;44.788;2024-01-25T23:39:38;992;;;20.9;39.3
76046;BME280;64741;41.730;44.788;2024-01-25T23:44:38;991.9;;;20.9;39.2
76046;BME280;64741;41.730;44.788;2024-01-25T23:49:28;991.9;;;20.9;39.3
76046;BME280;64741;41.730;44.788;2024-01-25T23:54:20;992;;;20.9;39.4
76046;BME280;64741;41.730;44.788;2024-01-25T23:59:28;991.9;;;20.9;39.6
